Hlavní strana
METAR-TAF:

METAR-TAF

Letiště :

Brunswick, Georgie, Spojené státy americké

zeměpisná šířka: 31-15N, zeměpisná délka: 081-28W, výška: 8 m

Aktuální stav počasí

Zpráva byla vytvořena před 29 minutami, v 10:35 UTC
Severozápadní vítr 3 kt
Teplota 18°C
Vlhkost vzduchu 100%
Tlak 1022 hPa
Viditelnost: 1.2 km
kouřmo

METAR: KBQK 241035Z AUTO 32003KT 3/4SM BR VV005 18/18 A3017 RMK AO2 T01830178

Čas: 07:04 (11:04 UTC)


TAF: chybějící

Stav a předpovědi počasí z více než 4 000 letišť (zprávy METAR a TAF).

Červené a žluté tečky na mapě představují dostupné meteorologické stanice.

Když kurzor umístíte na tečku, zobrazí se název stanice.

Pak kliknutím zobrazíte stav a předpověď počasí.

Chcete-li změnit mapu, kliknutím na zelené tlačítko se znaménkem +mapu přiblížíte, kliknutím na zelené tlačítko se znaménkem – mapu oddálíte a kliknutím na zelené šipky přejdete na sousední mapy.


METAR-TAF: